Terminal Aerodrome Forecast
Issued by NWS

Home | Current Version | Previous Version | Text Only | Print | Product List | Glossary On
Versions: 1 2 3 4 5 6 7 8 9 10 11 12 13 14
000
FTAK31 PAJN 241700
TAFAWG
TAF
PAWG 241723Z 2418/2518 29005KT 5SM BR OVC020
     FM241900 29005KT P6SM BKN020 BKN100
     FM242100 29008KT P6SM VCSH SCT020 BKN100
     FM250300 VRB04KT P6SM SCT150
     FM250700 VRB05KT P6SM BKN020 BKN100
     FM251000 28005KT P6SM OVC011
      AMD LTD TO CLD VIS AND WIND 2506/2515=

USA.gov is the U.S. government's official web portal to all federal, state and local government web resources and services.